createdAt,value
2022-08-20T00:00:41.230Z,23.20
2022-08-20T00:01:41.273Z,23.09
2022-08-20T00:02:41.200Z,23.15
2022-08-20T00:03:41.202Z,23.21
2022-08-20T00:04:41.215Z,23.15
2022-08-20T00:05:41.255Z,23.12
2022-08-20T00:06:41.233Z,23.10
2022-08-20T00:07:41.206Z,23.12
2022-08-20T00:08:41.330Z,23.12
2022-08-20T00:09:41.211Z,23.10
2022-08-20T00:10:41.220Z,23.10
2022-08-20T00:11:41.219Z,23.13
2022-08-20T00:12:41.221Z,23.08
2022-08-20T00:13:41.414Z,23.13
2022-08-20T00:14:41.253Z,23.17
2022-08-20T00:15:41.276Z,23.17
2022-08-20T00:16:41.252Z,23.12
2022-08-20T00:17:41.251Z,23.05
2022-08-20T00:18:41.254Z,23.09
2022-08-20T00:19:41.238Z,22.99
2022-08-20T00:20:41.260Z,23.00
2022-08-20T00:21:41.285Z,23.00
2022-08-20T00:22:41.339Z,23.02
2022-08-20T00:23:41.280Z,23.05
2022-08-20T00:24:41.262Z,23.06
2022-08-20T00:25:41.258Z,23.09
2022-08-20T00:26:51.891Z,23.09
2022-08-20T00:27:41.267Z,23.09
2022-08-20T00:28:41.269Z,23.06
2022-08-20T00:29:41.269Z,23.13
2022-08-20T00:30:41.268Z,23.00
2022-08-20T00:31:41.293Z,23.08
2022-08-20T00:32:41.281Z,23.02
2022-08-20T00:33:41.283Z,23.03
2022-08-20T00:34:41.289Z,23.00
2022-08-20T00:35:41.296Z,22.98
2022-08-20T00:36:41.285Z,23.02
2022-08-20T00:37:41.293Z,23.00
2022-08-20T00:38:41.307Z,22.85
2022-08-20T00:39:41.335Z,22.90
2022-08-20T00:40:41.306Z,22.96
2022-08-20T00:41:41.309Z,22.85
2022-08-20T00:42:41.320Z,22.96
2022-08-20T00:43:41.342Z,22.99
2022-08-20T00:44:41.310Z,22.98
2022-08-20T00:45:41.318Z,23.00
2022-08-20T00:46:41.322Z,23.02
2022-08-20T00:47:41.317Z,22.91
2022-08-20T00:48:41.333Z,22.93
2022-08-20T00:49:41.328Z,22.93
2022-08-20T00:50:41.331Z,22.91
2022-08-20T00:51:41.353Z,22.76
2022-08-20T00:52:41.339Z,22.88
2022-08-20T00:53:41.346Z,22.90
2022-08-20T00:54:41.359Z,22.90
2022-08-20T00:55:41.349Z,22.91
2022-08-20T00:56:41.345Z,22.84
2022-08-20T00:57:58.926Z,22.76
2022-08-20T00:58:41.348Z,22.85
2022-08-20T00:59:41.353Z,22.87
2022-08-20T01:00:41.372Z,22.80
2022-08-20T01:01:55.303Z,22.80
2022-08-20T01:02:41.366Z,22.81
2022-08-20T01:03:41.366Z,22.76
2022-08-20T01:04:41.363Z,22.80
2022-08-20T01:05:41.489Z,22.81
2022-08-20T01:06:41.593Z,22.81
2022-08-20T01:07:41.389Z,22.81
2022-08-20T01:08:41.371Z,22.78
2022-08-20T01:09:58.136Z,22.76
2022-08-20T01:10:41.382Z,22.81
2022-08-20T01:11:41.398Z,22.76
2022-08-20T01:12:41.392Z,22.75
2022-08-20T01:13:41.456Z,22.73
2022-08-20T01:14:41.420Z,22.80
2022-08-20T01:15:43.349Z,22.80
2022-08-20T01:16:41.403Z,22.76
2022-08-20T01:17:41.398Z,22.85
2022-08-20T01:18:41.399Z,22.84
2022-08-20T01:19:41.421Z,22.78
2022-08-20T01:20:41.410Z,22.84
2022-08-20T01:21:41.412Z,22.91
2022-08-20T01:22:41.413Z,22.75
2022-08-20T01:23:41.414Z,22.76
2022-08-20T01:24:41.422Z,22.84
2022-08-20T01:25:41.436Z,22.80
2022-08-20T01:26:41.442Z,22.72
2022-08-20T01:27:42.777Z,22.80
2022-08-20T01:28:41.428Z,22.73
2022-08-20T01:29:41.427Z,22.73
2022-08-20T01:30:41.433Z,22.68
2022-08-20T01:31:41.438Z,22.63
2022-08-20T01:32:41.500Z,22.78
2022-08-20T01:33:41.451Z,22.76
2022-08-20T01:34:41.442Z,22.78
2022-08-20T01:35:41.457Z,22.72
2022-08-20T01:36:45.977Z,22.75
2022-08-20T01:37:41.472Z,22.59
2022-08-20T01:38:41.457Z,22.68
2022-08-20T01:39:41.508Z,22.62
2022-08-20T01:40:41.464Z,22.72
2022-08-20T01:41:41.468Z,22.68
2022-08-20T01:42:53.972Z,22.59
2022-08-20T01:43:41.468Z,22.69
2022-08-20T01:44:41.486Z,22.65
2022-08-20T01:45:41.486Z,22.72
2022-08-20T01:46:44.027Z,22.62
2022-08-20T01:47:41.479Z,22.68
2022-08-20T01:48:41.490Z,22.73
2022-08-20T01:49:41.486Z,22.76
2022-08-20T01:50:41.486Z,22.59
2022-08-20T01:51:41.488Z,22.70
2022-08-20T01:52:41.496Z,22.66
2022-08-20T01:53:41.498Z,22.65
2022-08-20T01:54:41.500Z,22.66
2022-08-20T01:55:41.502Z,22.70
2022-08-20T01:56:41.506Z,22.68
2022-08-20T01:57:41.502Z,22.65
2022-08-20T01:58:41.510Z,22.69
2022-08-20T01:59:41.511Z,22.65
2022-08-20T02:00:41.518Z,22.66
2022-08-20T02:01:46.368Z,22.62
2022-08-20T02:02:41.512Z,22.60
2022-08-20T02:03:44.658Z,22.54
2022-08-20T02:04:41.522Z,22.55
2022-08-20T02:05:41.531Z,22.53
2022-08-20T02:06:41.528Z,22.54
2022-08-20T02:07:41.539Z,22.50
2022-08-20T02:08:41.543Z,22.51
2022-08-20T02:09:41.554Z,22.53
2022-08-20T02:10:41.550Z,22.50
2022-08-20T02:11:41.545Z,22.48
2022-08-20T02:12:41.540Z,22.41
2022-08-20T02:13:41.543Z,22.57
2022-08-20T02:14:41.633Z,22.51
2022-08-20T02:15:42.939Z,22.47
2022-08-20T02:16:41.552Z,22.50
2022-08-20T02:17:41.563Z,22.48
2022-08-20T02:18:41.564Z,22.51
2022-08-20T02:19:41.563Z,22.55
2022-08-20T02:20:41.567Z,22.51
2022-08-20T02:21:41.567Z,22.51
2022-08-20T02:22:41.826Z,22.47
2022-08-20T02:23:41.607Z,22.53
2022-08-20T02:24:41.579Z,22.50
2022-08-20T02:25:41.576Z,22.50
2022-08-20T02:26:41.578Z,22.50
2022-08-20T02:27:41.580Z,22.50
2022-08-20T02:28:41.583Z,22.53
2022-08-20T02:29:41.592Z,22.51
2022-08-20T02:30:41.599Z,22.43
2022-08-20T02:31:43.571Z,22.48
2022-08-20T02:32:41.599Z,22.45
2022-08-20T02:33:41.597Z,22.50
2022-08-20T02:34:41.595Z,22.41
2022-08-20T02:35:41.605Z,22.39
2022-08-20T02:36:41.609Z,22.44
2022-08-20T02:37:41.610Z,22.50
2022-08-20T02:38:41.621Z,22.50
2022-08-20T02:39:41.654Z,22.53
2022-08-20T02:40:41.613Z,22.47
2022-08-20T02:41:41.611Z,22.45
2022-08-20T02:42:41.631Z,22.45
2022-08-20T02:43:41.623Z,22.43
2022-08-20T02:44:41.639Z,22.39
2022-08-20T02:45:41.674Z,22.50
2022-08-20T02:46:41.651Z,22.39
2022-08-20T02:47:41.632Z,22.38
2022-08-20T02:48:41.643Z,22.47
2022-08-20T02:49:41.634Z,22.48
2022-08-20T02:50:41.643Z,22.43
2022-08-20T02:51:41.659Z,22.44
2022-08-20T02:52:41.649Z,22.47
2022-08-20T02:53:41.658Z,22.51
2022-08-20T02:54:41.643Z,22.45
2022-08-20T02:55:41.650Z,22.53
2022-08-20T02:56:41.680Z,22.51
2022-08-20T02:57:41.658Z,22.50
2022-08-20T02:58:41.661Z,22.57
2022-08-20T02:59:41.663Z,22.51
2022-08-20T03:00:41.668Z,22.55
2022-08-20T03:01:41.702Z,22.50
2022-08-20T03:02:41.678Z,22.51
2022-08-20T03:03:41.673Z,22.51
2022-08-20T03:04:41.684Z,22.59
2022-08-20T03:05:41.680Z,22.59
2022-08-20T03:06:41.681Z,22.55
2022-08-20T03:07:41.685Z,22.50
2022-08-20T03:08:41.681Z,22.54
2022-08-20T03:09:41.690Z,22.53
2022-08-20T03:10:41.697Z,22.51
2022-08-20T03:11:41.695Z,22.50
2022-08-20T03:12:41.721Z,22.51
2022-08-20T03:13:41.699Z,22.51
2022-08-20T03:14:41.705Z,22.59
2022-08-20T03:15:41.713Z,22.51
2022-08-20T03:16:41.715Z,22.55
2022-08-20T03:17:41.711Z,22.54
2022-08-20T03:18:41.710Z,22.53
2022-08-20T03:19:41.723Z,22.45
2022-08-20T03:20:41.722Z,22.47
2022-08-20T03:21:41.712Z,22.50
2022-08-20T03:22:41.755Z,22.41
2022-08-20T03:23:41.720Z,22.45
2022-08-20T03:24:41.747Z,22.48
2022-08-20T03:25:41.732Z,22.43
2022-08-20T03:26:41.751Z,22.36
2022-08-20T03:27:41.752Z,22.41
2022-08-20T03:28:41.729Z,22.38
2022-08-20T03:29:41.737Z,22.38
2022-08-20T03:30:41.735Z,22.38
2022-08-20T03:31:41.745Z,22.32
2022-08-20T03:32:41.745Z,22.35
2022-08-20T03:33:52.755Z,22.29
2022-08-20T03:34:41.749Z,22.29
2022-08-20T03:35:41.748Z,22.28
2022-08-20T03:36:41.751Z,22.36
2022-08-20T03:37:41.757Z,22.44
2022-08-20T03:38:41.756Z,22.36
2022-08-20T03:39:41.813Z,22.39
2022-08-20T03:40:41.766Z,22.39
2022-08-20T03:41:41.765Z,22.44
2022-08-20T03:42:41.782Z,22.44
2022-08-20T03:43:41.769Z,22.36
2022-08-20T03:44:41.778Z,22.33
2022-08-20T03:45:41.774Z,22.48
2022-08-20T03:46:41.786Z,22.48
2022-08-20T03:47:41.783Z,22.47
2022-08-20T03:48:41.801Z,22.47
2022-08-20T03:49:41.798Z,22.47
2022-08-20T03:50:41.781Z,22.48
2022-08-20T03:51:56.149Z,22.48
2022-08-20T03:52:41.815Z,22.44
2022-08-20T03:53:41.809Z,22.51
2022-08-20T03:54:41.809Z,22.51
2022-08-20T03:55:41.794Z,22.53
2022-08-20T03:56:41.800Z,22.45
2022-08-20T03:57:41.799Z,22.54
2022-08-20T03:58:41.809Z,22.48
2022-08-20T03:59:41.813Z,22.50
2022-08-20T04:00:41.821Z,22.53
2022-08-20T04:01:46.191Z,22.54
2022-08-20T04:02:41.822Z,22.47
2022-08-20T04:03:41.817Z,22.51
2022-08-20T04:04:41.819Z,22.47
2022-08-20T04:05:41.870Z,22.50
2022-08-20T04:06:42.491Z,22.50
2022-08-20T04:07:41.839Z,22.50
2022-08-20T04:08:41.836Z,22.41
2022-08-20T04:09:41.842Z,22.39
2022-08-20T04:10:41.836Z,22.29
2022-08-20T04:11:41.854Z,22.39
2022-08-20T04:12:48.629Z,22.33
2022-08-20T04:13:41.961Z,22.48
2022-08-20T04:14:41.862Z,22.41
2022-08-20T04:15:41.887Z,22.39
2022-08-20T04:16:41.857Z,22.35
2022-08-20T04:17:41.862Z,22.39
2022-08-20T04:18:41.863Z,22.43
2022-08-20T04:19:41.856Z,22.45
2022-08-20T04:20:41.892Z,22.44
2022-08-20T04:21:41.859Z,22.43
2022-08-20T04:22:41.868Z,22.48
2022-08-20T04:23:41.866Z,22.43
2022-08-20T04:24:41.871Z,22.50
2022-08-20T04:25:43.226Z,22.43
2022-08-20T04:26:41.871Z,22.44
2022-08-20T04:27:41.876Z,22.47
2022-08-20T04:28:41.899Z,22.41
2022-08-20T04:29:41.883Z,22.50
2022-08-20T04:30:47.461Z,22.45
2022-08-20T04:31:41.889Z,22.41
2022-08-20T04:32:41.894Z,22.41
2022-08-20T04:33:41.893Z,22.45
2022-08-20T04:34:41.888Z,22.45
2022-08-20T04:35:41.894Z,22.38
2022-08-20T04:36:41.897Z,22.43
2022-08-20T04:37:41.899Z,22.51
2022-08-20T04:38:48.468Z,22.43
2022-08-20T04:39:41.950Z,22.50
2022-08-20T04:40:41.927Z,22.54
2022-08-20T04:41:41.906Z,22.51
2022-08-20T04:42:41.922Z,22.51
2022-08-20T04:43:41.911Z,22.57
2022-08-20T04:44:41.921Z,22.53
2022-08-20T04:45:41.923Z,22.57
2022-08-20T04:46:41.927Z,22.51
2022-08-20T04:47:41.918Z,22.59
2022-08-20T04:48:41.926Z,22.57
2022-08-20T04:49:41.933Z,22.59
2022-08-20T04:50:41.930Z,22.57
2022-08-20T04:51:41.931Z,22.54
2022-08-20T04:52:41.939Z,22.50
2022-08-20T04:53:41.942Z,22.51
2022-08-20T04:54:41.941Z,22.53
2022-08-20T04:55:41.961Z,22.54
2022-08-20T04:56:41.960Z,22.48
2022-08-20T04:57:41.981Z,22.44
2022-08-20T04:58:41.975Z,22.41
2022-08-20T04:59:41.973Z,22.41
2022-08-20T05:00:41.965Z,22.41
2022-08-20T05:01:42.032Z,22.36
2022-08-20T05:02:41.966Z,22.43
2022-08-20T05:03:41.967Z,22.36
2022-08-20T05:04:41.970Z,22.36
2022-08-20T05:05:41.967Z,22.47
2022-08-20T05:06:42.019Z,22.36
2022-08-20T05:07:42.021Z,22.36
2022-08-20T05:08:41.981Z,22.29
2022-08-20T05:09:44.023Z,22.35
2022-08-20T05:10:41.989Z,22.35
2022-08-20T05:11:41.980Z,22.35
2022-08-20T05:12:42.021Z,22.35
2022-08-20T05:13:41.985Z,22.38
2022-08-20T05:14:42.046Z,22.44
2022-08-20T05:15:41.992Z,22.41
2022-08-20T05:16:42.023Z,22.43
2022-08-20T05:17:42.000Z,22.35
2022-08-20T05:18:42.045Z,22.35
2022-08-20T05:19:42.021Z,22.35
2022-08-20T05:20:42.021Z,22.41
2022-08-20T05:21:42.037Z,22.39
2022-08-20T05:22:42.025Z,22.20
2022-08-20T05:23:42.013Z,22.22
2022-08-20T05:24:42.012Z,22.25
2022-08-20T05:25:42.017Z,22.22
2022-08-20T05:26:42.023Z,22.18
2022-08-20T05:27:47.308Z,22.10
2022-08-20T05:28:52.725Z,22.10
2022-08-20T05:29:42.024Z,22.14
2022-08-20T05:30:42.026Z,22.20
2022-08-20T05:31:42.039Z,22.29
2022-08-20T05:32:44.648Z,22.28
2022-08-20T05:33:42.035Z,22.38
2022-08-20T05:34:42.038Z,22.29
2022-08-20T05:35:42.042Z,22.32
2022-08-20T05:36:42.061Z,22.30
2022-08-20T05:37:42.054Z,22.35
2022-08-20T05:38:42.051Z,22.43
2022-08-20T05:39:42.078Z,22.35
2022-08-20T05:40:42.057Z,22.32
2022-08-20T05:41:42.053Z,22.41
2022-08-20T05:42:42.080Z,22.38
2022-08-20T05:43:42.061Z,22.36
2022-08-20T05:44:42.061Z,22.33
2022-08-20T05:45:42.067Z,22.39
2022-08-20T05:46:42.069Z,22.35
2022-08-20T05:47:42.787Z,22.36
2022-08-20T05:48:42.076Z,22.47
2022-08-20T05:49:42.089Z,22.50
2022-08-20T05:50:42.087Z,22.44
2022-08-20T05:51:42.092Z,22.57
2022-08-20T05:52:42.084Z,22.53
2022-08-20T05:53:42.094Z,22.51
2022-08-20T05:54:42.090Z,22.54
2022-08-20T05:55:42.089Z,22.38
2022-08-20T05:56:42.098Z,22.39
2022-08-20T05:57:42.106Z,22.50
2022-08-20T05:58:42.100Z,22.45
2022-08-20T05:59:42.100Z,22.43
2022-08-20T06:00:42.114Z,22.45
2022-08-20T06:01:42.249Z,22.35
2022-08-20T06:02:42.112Z,22.44
2022-08-20T06:03:42.113Z,22.48
2022-08-20T06:04:42.126Z,22.38
2022-08-20T06:05:42.116Z,22.36
2022-08-20T06:06:46.161Z,22.36
2022-08-20T06:07:42.134Z,22.44
2022-08-20T06:08:42.131Z,22.36
2022-08-20T06:09:44.403Z,22.36
2022-08-20T06:10:42.689Z,22.35
2022-08-20T06:11:42.147Z,22.41
2022-08-20T06:12:42.234Z,22.35
2022-08-20T06:13:42.177Z,22.43
2022-08-20T06:14:42.169Z,22.44
2022-08-20T06:15:42.150Z,22.38
2022-08-20T06:16:46.746Z,22.45
2022-08-20T06:17:42.273Z,22.45
2022-08-20T06:18:42.150Z,22.38
2022-08-20T06:19:44.234Z,22.38
2022-08-20T06:20:42.156Z,22.29
2022-08-20T06:21:42.154Z,22.30
2022-08-20T06:22:42.167Z,22.28
2022-08-20T06:23:56.921Z,22.36
2022-08-20T06:24:42.172Z,22.36
2022-08-20T06:25:42.184Z,22.38
2022-08-20T06:26:42.174Z,22.38
2022-08-20T06:27:42.188Z,22.43
2022-08-20T06:28:42.191Z,22.47
2022-08-20T06:29:42.204Z,22.45
2022-08-20T06:30:42.244Z,22.41
2022-08-20T06:31:42.183Z,22.47
2022-08-20T06:32:42.198Z,22.44
2022-08-20T06:33:42.195Z,22.41
2022-08-20T06:34:50.682Z,22.47
2022-08-20T06:35:42.211Z,22.47
2022-08-20T06:36:42.202Z,22.44
2022-08-20T06:37:42.200Z,22.44
2022-08-20T06:38:42.215Z,22.44
2022-08-20T06:39:42.224Z,22.48
2022-08-20T06:40:42.206Z,22.54
2022-08-20T06:41:42.215Z,22.43
2022-08-20T06:42:47.204Z,22.48
2022-08-20T06:43:42.222Z,22.51
2022-08-20T06:44:42.216Z,22.59
2022-08-20T06:45:42.215Z,22.60
2022-08-20T06:46:42.258Z,22.50
2022-08-20T06:47:42.249Z,22.59
2022-08-20T06:48:42.238Z,22.55
2022-08-20T06:49:42.309Z,22.48
2022-08-20T06:50:47.881Z,22.57
2022-08-20T06:51:42.238Z,22.59
2022-08-20T06:52:52.203Z,22.55
2022-08-20T06:53:42.248Z,22.55
2022-08-20T06:54:42.252Z,22.51
2022-08-20T06:55:42.245Z,22.47
2022-08-20T06:56:42.260Z,22.60
2022-08-20T06:57:42.374Z,22.55
2022-08-20T06:58:42.268Z,22.51
2022-08-20T06:59:42.274Z,22.55
2022-08-20T07:00:42.298Z,22.51
2022-08-20T07:01:42.317Z,22.54
2022-08-20T07:02:42.285Z,22.55
2022-08-20T07:03:54.805Z,22.50
2022-08-20T07:04:42.264Z,22.54
2022-08-20T07:05:42.282Z,22.50
2022-08-20T07:06:42.272Z,22.47
2022-08-20T07:07:42.291Z,22.55
2022-08-20T07:08:42.306Z,22.51
2022-08-20T07:09:42.339Z,22.51
2022-08-20T07:10:42.300Z,22.51
2022-08-20T07:11:42.297Z,22.47
2022-08-20T07:12:42.316Z,22.50
2022-08-20T07:13:42.299Z,22.43
2022-08-20T07:14:42.300Z,22.44
2022-08-20T07:15:42.317Z,22.51
2022-08-20T07:16:42.305Z,22.51
2022-08-20T07:17:42.307Z,22.55
2022-08-20T07:18:42.311Z,22.55
2022-08-20T07:19:42.316Z,22.50
2022-08-20T07:20:42.321Z,22.54
2022-08-20T07:21:42.378Z,22.43
2022-08-20T07:22:42.333Z,22.43
2022-08-20T07:23:42.339Z,22.45
2022-08-20T07:24:44.944Z,22.47
2022-08-20T07:25:42.325Z,22.43
2022-08-20T07:26:42.371Z,22.44
2022-08-20T07:27:42.345Z,22.50
2022-08-20T07:28:42.367Z,22.45
2022-08-20T07:29:42.394Z,22.59
2022-08-20T07:30:57.142Z,22.53
2022-08-20T07:31:42.358Z,22.57
2022-08-20T07:32:50.124Z,22.55
2022-08-20T07:33:42.353Z,22.59
2022-08-20T07:34:44.701Z,22.54
2022-08-20T07:35:42.373Z,22.50
2022-08-20T07:36:42.367Z,22.45
2022-08-20T07:37:42.368Z,22.36
2022-08-20T07:38:42.376Z,22.44
2022-08-20T07:39:42.411Z,22.44
2022-08-20T07:40:42.375Z,22.48
2022-08-20T07:41:42.383Z,22.48
2022-08-20T07:42:42.387Z,22.44
2022-08-20T07:43:42.379Z,22.36
2022-08-20T07:44:42.393Z,22.50
2022-08-20T07:45:42.399Z,22.50
2022-08-20T07:46:42.379Z,22.50
2022-08-20T07:47:42.388Z,22.43
2022-08-20T07:48:42.387Z,22.47
2022-08-20T07:49:42.397Z,22.38
2022-08-20T07:50:43.139Z,22.36
2022-08-20T07:51:42.404Z,22.45
2022-08-20T07:52:42.409Z,22.38
2022-08-20T07:53:42.485Z,22.38
2022-08-20T07:54:42.431Z,22.43
2022-08-20T07:55:42.417Z,22.45
2022-08-20T07:56:42.416Z,22.47
2022-08-20T07:57:42.429Z,22.45
2022-08-20T07:58:42.420Z,22.50
2022-08-20T07:59:42.429Z,22.57
2022-08-20T08:00:42.469Z,22.55
2022-08-20T08:01:42.426Z,22.59
2022-08-20T08:02:42.445Z,22.53
2022-08-20T08:03:49.820Z,22.62
2022-08-20T08:04:42.446Z,22.59
2022-08-20T08:05:42.446Z,22.63
2022-08-20T08:06:42.460Z,22.65
2022-08-20T08:07:43.137Z,22.65
2022-08-20T08:08:42.468Z,22.60
2022-08-20T08:09:42.467Z,22.60
2022-08-20T08:10:42.464Z,22.65
2022-08-20T08:11:46.988Z,22.60
2022-08-20T08:12:42.464Z,22.70
2022-08-20T08:13:42.490Z,22.83
2022-08-20T08:14:42.480Z,22.83
2022-08-20T08:15:42.471Z,22.78
2022-08-20T08:16:42.477Z,22.76
2022-08-20T08:17:42.478Z,22.85
2022-08-20T08:18:42.486Z,22.75
2022-08-20T08:19:42.482Z,22.75
2022-08-20T08:20:46.900Z,22.87
2022-08-20T08:21:42.496Z,22.80
2022-08-20T08:22:42.475Z,22.75
2022-08-20T08:23:42.493Z,22.76
2022-08-20T08:24:42.498Z,22.68
2022-08-20T08:25:42.504Z,22.65
2022-08-20T08:26:42.502Z,22.69
2022-08-20T08:27:42.528Z,22.80
2022-08-20T08:28:42.504Z,22.72
2022-08-20T08:29:42.515Z,22.75
2022-08-20T08:30:42.522Z,22.72
2022-08-20T08:31:42.511Z,22.65
2022-08-20T08:32:42.516Z,22.68
2022-08-20T08:33:42.533Z,22.62
2022-08-20T08:34:42.521Z,22.73
2022-08-20T08:35:42.518Z,22.76
2022-08-20T08:36:42.520Z,22.75
2022-08-20T08:37:42.524Z,22.62
2022-08-20T08:38:42.525Z,22.70
2022-08-20T08:39:42.612Z,22.72
2022-08-20T08:40:42.543Z,22.59
2022-08-20T08:41:42.544Z,22.63
2022-08-20T08:42:43.416Z,22.68
2022-08-20T08:43:42.613Z,22.62
2022-08-20T08:44:42.581Z,22.78
2022-08-20T08:45:42.546Z,22.62
2022-08-20T08:46:42.560Z,22.63
2022-08-20T08:47:42.565Z,22.66
2022-08-20T08:48:42.575Z,22.69
2022-08-20T08:49:42.586Z,22.59
2022-08-20T08:50:53.561Z,22.57
2022-08-20T08:51:42.572Z,22.68
2022-08-20T08:52:42.570Z,22.66
2022-08-20T08:53:42.571Z,22.59
2022-08-20T08:54:42.595Z,22.68
2022-08-20T08:55:42.583Z,22.72
2022-08-20T08:56:42.628Z,22.72
2022-08-20T08:57:42.620Z,22.72
2022-08-20T08:58:42.582Z,22.72
2022-08-20T09:00:01.413Z,22.66
2022-08-20T09:00:52.833Z,22.68
2022-08-20T09:01:55.020Z,22.57
2022-08-20T09:02:42.723Z,22.59
2022-08-20T09:03:42.601Z,22.68
2022-08-20T09:04:42.614Z,22.62
2022-08-20T09:05:42.629Z,22.55
2022-08-20T09:06:42.626Z,22.72
2022-08-20T09:07:42.647Z,22.69
2022-08-20T09:08:42.611Z,22.66
2022-08-20T09:09:42.628Z,22.80
2022-08-20T09:10:42.631Z,22.75
2022-08-20T09:11:42.629Z,22.78
2022-08-20T09:12:47.190Z,22.68
2022-08-20T09:13:42.641Z,22.75
2022-08-20T09:14:42.632Z,22.70
2022-08-20T09:15:42.638Z,22.76
2022-08-20T09:16:52.774Z,22.81
2022-08-20T09:17:42.656Z,22.73
2022-08-20T09:18:42.654Z,22.78
2022-08-20T09:19:42.657Z,22.68
2022-08-20T09:20:42.656Z,22.73
2022-08-20T09:21:42.696Z,22.78
2022-08-20T09:22:42.661Z,22.68
2022-08-20T09:23:42.678Z,22.70
2022-08-20T09:24:42.682Z,22.73
2022-08-20T09:25:42.673Z,22.73
2022-08-20T09:26:42.672Z,22.72
2022-08-20T09:27:43.512Z,22.66
2022-08-20T09:28:42.687Z,22.62
2022-08-20T09:29:42.715Z,22.66
2022-08-20T09:30:42.712Z,22.62
2022-08-20T09:31:42.717Z,22.63
2022-08-20T09:32:42.708Z,22.68
2022-08-20T09:33:42.701Z,22.65
2022-08-20T09:34:42.745Z,22.66
2022-08-20T09:35:42.700Z,22.70
2022-08-20T09:36:42.699Z,22.69
2022-08-20T09:37:42.701Z,22.73
2022-08-20T09:38:42.714Z,22.72
2022-08-20T09:39:42.736Z,22.70
2022-08-20T09:40:42.714Z,22.78
2022-08-20T09:41:42.778Z,22.69
2022-08-20T09:42:42.835Z,22.70
2022-08-20T09:43:42.720Z,22.73
2022-08-20T09:44:42.819Z,22.73
2022-08-20T09:45:42.755Z,22.80
2022-08-20T09:46:42.725Z,22.73
2022-08-20T09:48:01.916Z,22.81
2022-08-20T09:48:42.746Z,22.81
2022-08-20T09:49:42.745Z,22.84
2022-08-20T09:50:42.742Z,22.90
2022-08-20T09:51:42.768Z,22.84
2022-08-20T09:52:42.757Z,22.88
2022-08-20T09:53:42.777Z,22.80
2022-08-20T09:54:46.661Z,22.93
2022-08-20T09:55:42.758Z,22.94
2022-08-20T09:56:42.798Z,22.91
2022-08-20T09:57:42.765Z,22.93
2022-08-20T09:58:42.820Z,22.93
2022-08-20T09:59:42.787Z,22.87
2022-08-20T10:00:42.788Z,22.88
2022-08-20T10:01:42.875Z,22.93
2022-08-20T10:02:42.783Z,22.90
2022-08-20T10:03:42.806Z,22.90
2022-08-20T10:04:42.790Z,22.87
2022-08-20T10:05:42.779Z,22.83
2022-08-20T10:06:42.901Z,22.76
2022-08-20T10:07:43.557Z,22.84
2022-08-20T10:08:42.789Z,22.91
2022-08-20T10:09:43.209Z,22.85
2022-08-20T10:10:43.019Z,22.87
2022-08-20T10:11:42.857Z,22.84
2022-08-20T10:12:43.665Z,22.87
2022-08-20T10:13:42.973Z,22.91
2022-08-20T10:14:43.434Z,22.85
2022-08-20T10:15:43.011Z,22.87
2022-08-20T10:16:43.631Z,22.88
2022-08-20T10:17:43.107Z,22.84
2022-08-20T10:18:43.740Z,22.88
2022-08-20T10:19:43.017Z,22.88
2022-08-20T10:20:42.845Z,22.91
2022-08-20T10:21:43.557Z,22.81
2022-08-20T10:22:43.203Z,22.81
2022-08-20T10:23:43.993Z,22.76
2022-08-20T10:24:42.896Z,22.73
2022-08-20T10:25:43.311Z,22.69
2022-08-20T10:26:43.109Z,22.76
2022-08-20T10:27:43.236Z,22.75
2022-08-20T10:28:43.185Z,22.80
2022-08-20T10:30:43.401Z,22.81
2022-08-20T10:31:42.945Z,22.85
2022-08-20T10:32:43.630Z,22.75
2022-08-20T10:33:43.847Z,22.84
2022-08-20T10:34:43.217Z,22.87
2022-08-20T10:35:43.167Z,22.81
2022-08-20T10:36:44.171Z,22.85
2022-08-20T10:37:43.064Z,22.85
2022-08-20T10:38:42.952Z,23.03
2022-08-20T10:39:43.471Z,22.99
2022-08-20T10:40:43.290Z,23.02
2022-08-20T10:41:43.187Z,22.99
2022-08-20T10:42:44.271Z,23.08
2022-08-20T10:43:42.963Z,23.13
2022-08-20T10:44:43.179Z,23.09
2022-08-20T10:45:43.130Z,23.13
2022-08-20T10:46:42.957Z,23.24
2022-08-20T10:47:44.058Z,23.24
2022-08-20T10:48:44.449Z,23.23
2022-08-20T10:49:43.223Z,23.23
2022-08-20T10:50:43.339Z,23.21
2022-08-20T10:51:42.993Z,23.20
2022-08-20T10:52:44.968Z,23.36
2022-08-20T10:53:43.781Z,23.37
2022-08-20T10:54:44.650Z,23.36
2022-08-20T10:55:44.067Z,23.39
2022-08-20T10:56:43.719Z,23.32
2022-08-20T10:57:43.733Z,23.28
2022-08-20T10:58:43.466Z,23.37
2022-08-20T10:59:43.454Z,23.36
2022-08-20T11:00:44.945Z,23.41
2022-08-20T11:01:43.190Z,23.34
2022-08-20T11:02:43.419Z,23.27
2022-08-20T11:03:43.119Z,23.39
2022-08-20T11:04:44.268Z,23.37
2022-08-20T11:05:43.519Z,23.34
2022-08-20T11:06:44.670Z,23.32
2022-08-20T11:07:49.978Z,23.39
2022-08-20T11:08:43.434Z,23.28
2022-08-20T11:09:43.368Z,23.41
2022-08-20T11:10:43.364Z,23.23
2022-08-20T11:11:43.112Z,23.32
2022-08-20T11:12:45.529Z,23.31
2022-08-20T11:13:43.866Z,23.39
2022-08-20T11:14:43.337Z,23.28
2022-08-20T11:15:43.501Z,23.31
2022-08-20T11:16:43.591Z,23.32
2022-08-20T11:17:43.638Z,23.34
2022-08-20T11:18:47.608Z,23.28
2022-08-20T11:19:43.263Z,23.40
2022-08-20T11:20:43.527Z,23.27
2022-08-20T11:21:43.254Z,23.34
2022-08-20T11:22:43.429Z,23.36
2022-08-20T11:23:43.544Z,23.21
2022-08-20T11:24:44.458Z,23.21
2022-08-20T11:25:43.409Z,23.23
2022-08-20T11:26:43.550Z,23.18
2022-08-20T11:27:46.841Z,23.20
2022-08-20T11:28:43.254Z,23.28
2022-08-20T11:29:44.487Z,23.20
2022-08-20T11:30:44.673Z,23.23
2022-08-20T11:31:43.689Z,23.25
2022-08-20T11:32:43.631Z,23.20
2022-08-20T11:33:43.529Z,23.20
2022-08-20T11:34:43.962Z,23.28
2022-08-20T11:35:48.852Z,23.36
2022-08-20T11:36:44.552Z,23.32
2022-08-20T11:37:43.722Z,23.21
2022-08-20T11:38:43.553Z,23.25
2022-08-20T11:39:43.608Z,23.23
2022-08-20T11:40:43.644Z,23.17
2022-08-20T11:41:43.818Z,23.17
2022-08-20T11:43:04.352Z,23.17
2022-08-20T11:43:55.035Z,23.18
2022-08-20T11:44:43.982Z,23.20
2022-08-20T11:45:43.360Z,23.25
2022-08-20T11:46:43.357Z,23.27
2022-08-20T11:47:43.223Z,23.21
2022-08-20T11:48:44.827Z,23.28
2022-08-20T11:49:43.294Z,23.20
2022-08-20T11:50:43.598Z,23.31
2022-08-20T11:51:49.823Z,23.28
2022-08-20T11:52:43.286Z,23.24
2022-08-20T11:53:43.248Z,23.28
2022-08-20T11:54:44.427Z,23.24
2022-08-20T11:55:43.291Z,23.20
2022-08-20T11:56:45.832Z,23.23
2022-08-20T11:57:43.253Z,23.18
2022-08-20T11:58:43.410Z,23.15
2022-08-20T11:59:43.271Z,23.27
2022-08-20T12:00:44.973Z,23.25
2022-08-20T12:01:46.649Z,23.28
2022-08-20T12:02:43.393Z,23.28
2022-08-20T12:03:43.454Z,23.17
2022-08-20T12:04:43.275Z,23.34
2022-08-20T12:05:43.285Z,23.27
2022-08-20T12:06:44.489Z,23.28
2022-08-20T12:07:43.364Z,23.18
2022-08-20T12:08:43.686Z,23.17
2022-08-20T12:09:50.982Z,23.24
2022-08-20T12:10:44.077Z,23.28
2022-08-20T12:11:43.605Z,23.27
2022-08-20T12:12:44.279Z,23.31
2022-08-20T12:13:48.502Z,23.36
2022-08-20T12:14:43.499Z,23.31
2022-08-20T12:15:43.530Z,23.43
2022-08-20T12:16:43.537Z,23.28
2022-08-20T12:17:43.690Z,23.39
2022-08-20T12:18:44.393Z,23.40
2022-08-20T12:19:43.871Z,23.34
2022-08-20T12:20:43.603Z,23.31
2022-08-20T12:21:43.665Z,23.32
2022-08-20T12:22:43.515Z,23.39
2022-08-20T12:23:43.316Z,23.32
2022-08-20T12:24:44.322Z,23.34
2022-08-20T12:25:43.750Z,23.27
2022-08-20T12:26:43.938Z,23.21
2022-08-20T12:27:43.325Z,23.32
2022-08-20T12:28:43.443Z,23.21
2022-08-20T12:29:43.332Z,23.23
2022-08-20T12:30:44.487Z,23.34
2022-08-20T12:31:43.331Z,23.36
2022-08-20T12:32:43.476Z,23.40
2022-08-20T12:33:43.345Z,23.39
2022-08-20T12:34:43.351Z,23.39
2022-08-20T12:35:44.127Z,23.32
2022-08-20T12:36:44.370Z,23.32
2022-08-20T12:37:43.477Z,23.36
2022-08-20T12:38:43.461Z,23.37
2022-08-20T12:39:43.662Z,23.31
2022-08-20T12:40:43.410Z,23.28
2022-08-20T12:41:43.439Z,23.36
2022-08-20T12:42:44.428Z,23.28
2022-08-20T12:43:43.447Z,23.25
2022-08-20T12:44:43.418Z,23.28
2022-08-20T12:45:43.419Z,23.20
2022-08-20T12:46:43.401Z,23.25
2022-08-20T12:47:44.813Z,23.20
2022-08-20T12:48:44.407Z,23.15
2022-08-20T12:49:43.555Z,23.23
2022-08-20T12:50:43.565Z,23.27
2022-08-20T12:51:43.403Z,23.31
2022-08-20T12:52:43.423Z,23.34
2022-08-20T12:53:43.418Z,23.27